Other Surface Observations
Issued by NWS Missoula, MT

Home | Current Version | Previous Version | Text Only | Print | Product List | Glossary On
Versions: 1 2 3 4 5 6 7 8 9 10 11 12 13 14 15 16 17 18 19 20 21 22 23 24 25 26 27 28 29 30 31 32 33 34 35 36 37 38 39 40 41 42 43 44 45 46 47 48 49 50
000
SXUS55 KMSO 050043
OSOMSO
MONTANA AWOS SUMMARY
NATIONAL WEATHER SERVICE MISSOULA MT
643 PM MDT TUE AUG 4 2015

Montana AWOS Reports

LAUREL      |K6S8 050035Z AUTO 00000KT 25SM 24/12 A2998 RMK AO1 T02390117
TWIN BRIDGES|K7S1 050035Z AUTO 35011G16KT 40SM 27/05 A2998 RMK AO1 T02670050
MALTA       |KM75 050035Z AUTO 28004KT 40SM 27/11 A2983 RMK AO1 T02720111
ROUNDUP     |KRPX 050035Z AUTO 00000KT 40SM 24/10 A2990 RMK AO1 T02440100




USA.gov is the U.S. government's official web portal to all federal, state and local government web resources and services.